createdAt,value
2017-09-10T00:01:01.379Z,7.90
2017-09-10T00:03:28.164Z,8.03
2017-09-10T00:05:54.922Z,9.53
2017-09-10T00:08:21.706Z,8.47
2017-09-10T00:10:48.499Z,8.10
2017-09-10T00:13:15.256Z,8.90
2017-09-10T00:15:42.018Z,9.40
2017-09-10T00:18:08.800Z,9.90
2017-09-10T00:20:35.569Z,8.50
2017-09-10T00:23:02.340Z,8.90
2017-09-10T00:25:29.137Z,8.53
2017-09-10T00:27:55.879Z,8.20
2017-09-10T00:30:22.622Z,9.37
2017-09-10T00:32:49.466Z,8.70
2017-09-10T00:35:16.233Z,10.00
2017-09-10T00:37:43.022Z,10.00
2017-09-10T00:40:09.803Z,8.80
2017-09-10T00:42:36.563Z,9.20
2017-09-10T00:45:03.326Z,8.93
2017-09-10T00:47:30.135Z,9.57
2017-09-10T00:49:56.894Z,9.30
2017-09-10T00:52:23.727Z,8.30
2017-09-10T00:54:50.551Z,10.03
2017-09-10T00:57:17.346Z,9.93
2017-09-10T00:59:44.103Z,9.50
2017-09-10T01:02:10.922Z,10.30
2017-09-10T01:04:37.696Z,9.20
2017-09-10T01:07:04.676Z,10.47
2017-09-10T01:09:31.508Z,10.17
2017-09-10T01:11:58.271Z,9.60
2017-09-10T01:14:25.028Z,9.23
2017-09-10T01:16:51.865Z,9.70
2017-09-10T01:19:18.665Z,10.07
2017-09-10T01:21:45.465Z,10.80
2017-09-10T01:24:12.271Z,11.10
2017-09-10T01:26:39.044Z,11.97
2017-09-10T01:29:05.810Z,11.10
2017-09-10T01:31:32.615Z,12.23
2017-09-10T01:33:59.359Z,11.30
2017-09-10T01:36:26.126Z,11.97
2017-09-10T01:38:52.940Z,11.60
2017-09-10T01:41:19.703Z,10.47
2017-09-10T01:43:46.461Z,10.60
2017-09-10T01:46:13.255Z,10.90
2017-09-10T01:48:40.009Z,12.03
2017-09-10T01:51:06.760Z,10.60
2017-09-10T01:53:33.548Z,10.80
2017-09-10T01:56:00.304Z,9.90
2017-09-10T01:58:27.103Z,10.03
2017-09-10T02:00:53.899Z,10.23
2017-09-10T02:03:20.645Z,10.33
2017-09-10T02:05:47.405Z,10.53
2017-09-10T02:08:14.176Z,12.13
2017-09-10T02:10:40.944Z,11.57
2017-09-10T02:13:07.697Z,12.07
2017-09-10T02:15:34.600Z,11.90
2017-09-10T02:18:01.375Z,10.80
2017-09-10T02:20:28.137Z,10.67
2017-09-10T02:22:54.927Z,11.30
2017-09-10T02:25:21.669Z,12.70
2017-09-10T02:27:48.414Z,11.67
2017-09-10T02:30:15.212Z,12.43
2017-09-10T02:32:42.019Z,12.27
2017-09-10T02:35:08.852Z,11.37
2017-09-10T02:37:35.654Z,12.93
2017-09-10T02:40:02.431Z,11.97
2017-09-10T02:42:29.175Z,12.27
2017-09-10T02:44:55.989Z,13.63
2017-09-10T02:47:22.732Z,12.17
2017-09-10T02:49:49.491Z,12.53
2017-09-10T02:52:16.316Z,12.00
2017-09-10T02:54:43.142Z,12.50
2017-09-10T02:57:09.891Z,11.90
2017-09-10T02:59:36.683Z,11.70
2017-09-10T03:02:03.431Z,11.90
2017-09-10T03:04:30.199Z,12.43
2017-09-10T03:06:56.998Z,12.20
2017-09-10T03:09:23.766Z,11.83
2017-09-10T03:11:50.543Z,12.60
2017-09-10T03:14:17.338Z,12.83
2017-09-10T03:16:44.085Z,11.63
2017-09-10T03:19:10.851Z,12.93
2017-09-10T03:21:37.647Z,11.40
2017-09-10T03:24:04.409Z,13.40
2017-09-10T03:26:31.156Z,13.27
2017-09-10T03:28:57.940Z,11.77
2017-09-10T03:31:24.699Z,10.77
2017-09-10T03:33:51.477Z,13.60
2017-09-10T03:36:18.263Z,13.90
2017-09-10T03:38:45.021Z,11.57
2017-09-10T03:41:11.771Z,13.53
2017-09-10T03:43:38.568Z,11.63
2017-09-10T03:46:05.358Z,12.70
2017-09-10T03:48:32.191Z,13.37
2017-09-10T03:50:58.988Z,12.00
2017-09-10T03:53:25.751Z,13.40
2017-09-10T03:55:52.531Z,13.50
2017-09-10T03:58:19.312Z,13.60
2017-09-10T04:00:46.108Z,13.23
2017-09-10T04:03:12.843Z,16.03
2017-09-10T04:05:39.672Z,13.60
2017-09-10T04:08:06.438Z,13.10
2017-09-10T04:10:33.198Z,14.23
2017-09-10T04:13:00.000Z,11.30
2017-09-10T04:15:26.751Z,14.73
2017-09-10T04:17:53.538Z,16.10
2017-09-10T04:20:20.362Z,16.07
2017-09-10T04:22:47.167Z,14.33
2017-09-10T04:25:13.956Z,12.90
2017-09-10T04:27:40.769Z,11.67
2017-09-10T04:30:07.581Z,13.40
2017-09-10T04:32:34.334Z,15.33
2017-09-10T04:35:01.145Z,13.73
2017-09-10T04:37:27.931Z,14.87
2017-09-10T04:39:54.723Z,12.97
2017-09-10T04:42:21.531Z,14.63
2017-09-10T04:44:48.307Z,13.63
2017-09-10T04:47:15.069Z,11.43
2017-09-10T04:49:41.895Z,12.43
2017-09-10T04:52:08.664Z,12.30
2017-09-10T04:54:35.441Z,12.40
2017-09-10T04:57:02.277Z,11.97
2017-09-10T04:59:29.062Z,14.60
2017-09-10T05:01:55.850Z,14.23
2017-09-10T05:04:22.640Z,13.87
2017-09-10T05:06:49.401Z,14.93
2017-09-10T05:09:16.151Z,13.60
2017-09-10T05:11:42.952Z,14.70
2017-09-10T05:14:09.723Z,12.40
2017-09-10T05:16:36.515Z,13.73
2017-09-10T05:19:03.323Z,12.60
2017-09-10T05:21:30.153Z,14.90
2017-09-10T05:23:56.937Z,14.40
2017-09-10T05:26:23.786Z,13.77
2017-09-10T05:28:50.535Z,12.63
2017-09-10T05:31:17.319Z,12.73
2017-09-10T05:33:44.146Z,13.47
2017-09-10T05:36:10.950Z,12.07
2017-09-10T05:38:37.731Z,12.70
2017-09-10T05:41:04.549Z,7.70
2017-09-10T05:43:31.307Z,12.50
2017-09-10T05:45:58.109Z,12.10
2017-09-10T05:48:24.949Z,9.97
2017-09-10T05:50:51.736Z,12.40
2017-09-10T05:53:18.502Z,12.20
2017-09-10T05:55:45.319Z,11.13
2017-09-10T05:58:12.075Z,12.13
2017-09-10T06:00:38.843Z,12.40
2017-09-10T06:03:05.634Z,9.60
2017-09-10T06:05:32.438Z,12.17
2017-09-10T06:07:59.247Z,12.97
2017-09-10T06:10:26.056Z,11.60
2017-09-10T06:12:52.819Z,10.80
2017-09-10T06:15:19.576Z,13.33
2017-09-10T06:17:46.378Z,11.77
2017-09-10T06:20:13.119Z,15.10
2017-09-10T06:22:39.859Z,11.40
2017-09-10T06:25:06.654Z,11.97
2017-09-10T06:27:33.420Z,10.80
2017-09-10T06:30:00.177Z,10.30
2017-09-10T06:32:26.969Z,12.10
2017-09-10T06:34:53.750Z,11.23
2017-09-10T06:37:20.503Z,10.77
2017-09-10T06:39:47.306Z,10.37
2017-09-10T06:42:14.112Z,12.77
2017-09-10T06:44:40.871Z,10.73
2017-09-10T06:47:07.678Z,11.17
2017-09-10T06:49:34.418Z,11.50
2017-09-10T06:52:01.172Z,11.50
2017-09-10T06:54:27.967Z,10.17
2017-09-10T06:56:54.753Z,11.57
2017-09-10T06:59:21.507Z,10.93
2017-09-10T07:01:48.318Z,12.50
2017-09-10T07:04:15.103Z,11.20
2017-09-10T07:06:41.843Z,11.40
2017-09-10T07:09:08.636Z,11.70
2017-09-10T07:11:35.387Z,11.80
2017-09-10T07:14:02.160Z,11.60
2017-09-10T07:16:28.968Z,13.50
2017-09-10T07:18:55.728Z,11.27
2017-09-10T07:21:22.511Z,10.80
2017-09-10T07:23:49.346Z,10.27
2017-09-10T07:26:16.116Z,10.57
2017-09-10T07:28:42.888Z,9.83
2017-09-10T07:31:09.668Z,11.53
2017-09-10T07:33:36.440Z,12.07
2017-09-10T07:36:03.188Z,10.50
2017-09-10T07:38:30.012Z,9.43
2017-09-10T07:40:56.794Z,9.40
2017-09-10T07:43:23.587Z,8.63
2017-09-10T07:45:50.420Z,9.23
2017-09-10T07:48:17.181Z,8.73
2017-09-10T07:50:43.923Z,8.97
2017-09-10T07:53:10.713Z,11.37
2017-09-10T07:55:37.482Z,8.53
2017-09-10T07:58:04.242Z,9.00
2017-09-10T08:00:31.067Z,8.00
2017-09-10T08:02:57.838Z,7.43
2017-09-10T08:05:24.584Z,5.80
2017-09-10T08:07:51.388Z,7.80
2017-09-10T08:10:18.158Z,8.37
2017-09-10T08:12:44.910Z,7.27
2017-09-10T08:15:11.700Z,9.10
2017-09-10T08:17:38.469Z,8.00
2017-09-10T08:20:05.271Z,8.03
2017-09-10T08:22:32.073Z,7.70
2017-09-10T08:24:58.838Z,7.03
2017-09-10T08:27:25.587Z,3.90
2017-09-10T08:29:52.371Z,6.90
2017-09-10T08:32:19.130Z,6.60
2017-09-10T08:34:45.871Z,5.80
2017-09-10T08:37:12.683Z,4.77
2017-09-10T08:39:39.551Z,6.13
2017-09-10T08:42:06.390Z,6.43
2017-09-10T08:44:33.240Z,6.17
2017-09-10T08:47:00.090Z,5.87
2017-09-10T08:49:26.884Z,6.10
2017-09-10T08:51:53.693Z,5.60
2017-09-10T08:54:20.572Z,5.50
2017-09-10T08:56:47.372Z,5.03
2017-09-10T08:59:14.223Z,6.37
2017-09-10T09:01:41.018Z,6.33
2017-09-10T09:04:07.927Z,5.17
2017-09-10T09:06:34.741Z,5.10
2017-09-10T09:09:01.541Z,5.03
2017-09-10T09:11:28.307Z,4.77
2017-09-10T09:13:55.099Z,4.70
2017-09-10T09:16:21.862Z,4.43
2017-09-10T09:18:48.662Z,4.20
2017-09-10T09:21:15.558Z,5.67
2017-09-10T09:23:42.367Z,4.77
2017-09-10T09:26:09.174Z,4.10
2017-09-10T09:28:36.001Z,2.50
2017-09-10T09:31:02.792Z,3.87
2017-09-10T09:33:29.634Z,4.27
2017-09-10T09:35:56.410Z,4.60
2017-09-10T09:38:23.169Z,4.23
2017-09-10T09:40:49.973Z,4.37
2017-09-10T09:43:16.850Z,2.33
2017-09-10T09:45:43.597Z,3.00
2017-09-10T09:48:10.433Z,4.30
2017-09-10T09:50:37.287Z,4.17
2017-09-10T09:53:04.083Z,1.87
2017-09-10T09:55:30.859Z,3.33
2017-09-10T09:57:57.675Z,4.43
2017-09-10T10:00:24.476Z,3.33
2017-09-10T10:02:51.287Z,4.07
2017-09-10T10:05:18.111Z,3.50
2017-09-10T10:07:44.880Z,3.53
2017-09-10T10:10:11.644Z,2.90
2017-09-10T10:12:38.421Z,2.77
2017-09-10T10:15:05.162Z,3.17
2017-09-10T10:17:31.998Z,2.63
2017-09-10T10:19:58.834Z,2.63
2017-09-10T10:22:25.695Z,3.17
2017-09-10T10:24:52.456Z,3.30
2017-09-10T10:27:19.379Z,3.10
2017-09-10T10:29:46.149Z,2.70
2017-09-10T10:32:13.065Z,2.43
2017-09-10T10:34:39.888Z,2.70
2017-09-10T10:37:06.682Z,2.40
2017-09-10T10:39:33.412Z,2.60
2017-09-10T10:42:00.193Z,6.90
2017-09-10T10:44:26.965Z,2.53
2017-09-10T10:46:53.822Z,2.57
2017-09-10T10:49:20.614Z,2.63
2017-09-10T10:51:47.364Z,2.60
2017-09-10T10:54:14.105Z,2.77
2017-09-10T10:56:40.928Z,2.50
2017-09-10T10:59:07.687Z,2.40
2017-09-10T11:01:34.476Z,2.93
2017-09-10T11:04:01.288Z,2.80
2017-09-10T11:06:28.055Z,2.50
2017-09-10T11:08:54.828Z,2.77
2017-09-10T11:11:21.660Z,2.20
2017-09-10T11:13:48.413Z,3.67
2017-09-10T11:16:15.155Z,3.17
2017-09-10T11:18:41.938Z,3.10
2017-09-10T11:21:08.675Z,3.07
2017-09-10T11:23:35.457Z,2.30
2017-09-10T11:26:02.231Z,2.40
2017-09-10T11:28:28.971Z,2.97
2017-09-10T11:30:55.711Z,2.60
2017-09-10T11:33:22.489Z,1.87
2017-09-10T11:35:49.295Z,3.30
2017-09-10T11:38:16.062Z,3.10
2017-09-10T11:40:42.876Z,2.77
2017-09-10T11:43:09.616Z,3.33
2017-09-10T11:45:36.382Z,3.27
2017-09-10T11:48:03.183Z,3.00
2017-09-10T11:50:29.950Z,3.77
2017-09-10T11:52:56.724Z,3.57
2017-09-10T11:55:23.500Z,3.30
2017-09-10T11:57:50.262Z,4.17
2017-09-10T12:00:17.017Z,2.60
2017-09-10T12:02:43.788Z,4.30
2017-09-10T12:05:10.565Z,4.20
2017-09-10T12:07:37.329Z,3.73
2017-09-10T12:10:04.118Z,3.70
2017-09-10T12:12:30.855Z,4.50
2017-09-10T12:14:57.639Z,3.97
2017-09-10T12:17:24.380Z,3.60
2017-09-10T12:19:51.118Z,3.73
2017-09-10T12:22:17.915Z,4.37
2017-09-10T12:24:44.653Z,3.80
2017-09-10T12:27:11.406Z,4.30
2017-09-10T12:29:38.180Z,5.00
2017-09-10T12:32:04.954Z,4.40
2017-09-10T12:34:31.703Z,5.10
2017-09-10T12:36:58.475Z,4.07
2017-09-10T12:39:25.234Z,4.63
2017-09-10T12:41:51.967Z,4.43
2017-09-10T12:44:18.771Z,4.23
2017-09-10T12:46:45.543Z,4.77
2017-09-10T12:49:12.358Z,4.60
2017-09-10T12:51:39.091Z,4.47
2017-09-10T12:54:05.845Z,4.30
2017-09-10T12:56:32.624Z,4.73
2017-09-10T12:58:59.363Z,4.57
2017-09-10T13:01:26.118Z,4.00
2017-09-10T13:03:52.958Z,3.70
2017-09-10T13:06:19.710Z,4.13
2017-09-10T13:08:46.551Z,4.37
2017-09-10T13:11:13.398Z,4.53
2017-09-10T13:13:40.182Z,4.20
2017-09-10T13:16:06.919Z,4.20
2017-09-10T13:18:33.710Z,4.10
2017-09-10T13:21:00.448Z,4.50
2017-09-10T13:23:27.447Z,3.20
2017-09-10T13:25:54.245Z,2.60
2017-09-10T13:28:21.042Z,3.10
2017-09-10T13:30:47.780Z,3.73
2017-09-10T13:33:14.570Z,4.10
2017-09-10T13:35:41.308Z,3.57
2017-09-10T13:38:08.046Z,3.83
2017-09-10T13:40:34.860Z,3.13
2017-09-10T13:43:01.650Z,3.27
2017-09-10T13:45:28.416Z,3.90
2017-09-10T13:47:55.182Z,3.40
2017-09-10T13:50:21.932Z,4.00
2017-09-10T13:52:48.790Z,5.77
2017-09-10T13:55:15.599Z,3.77
2017-09-10T13:57:42.374Z,3.60
2017-09-10T14:00:09.304Z,3.90
2017-09-10T14:02:36.139Z,3.50
2017-09-10T14:05:02.904Z,3.47
2017-09-10T14:07:29.639Z,3.35
2017-09-10T14:09:56.453Z,3.50
2017-09-10T14:12:23.211Z,3.00
2017-09-10T14:14:49.959Z,3.70
2017-09-10T14:17:16.758Z,2.60
2017-09-10T14:19:43.491Z,2.70
2017-09-10T14:22:10.260Z,2.90
2017-09-10T14:24:37.032Z,3.10
